sensor_id;sensor_type;location;lat;lon;timestamp;P1;durP1;ratioP1;P2;durP2;ratioP2
39996;SDS011;25688;52.338;21.072;2023-05-07T00:01:36;13.52;;;6.10;;
39996;SDS011;25688;52.338;21.072;2023-05-07T00:04:03;15.18;;;7.35;;
39996;SDS011;25688;52.338;21.072;2023-05-07T00:06:38;15.18;;;7.40;;
39996;SDS011;25688;52.338;21.072;2023-05-07T00:09:06;11.93;;;6.70;;
39996;SDS011;25688;52.338;21.072;2023-05-07T00:11:32;14.05;;;7.38;;
39996;SDS011;25688;52.338;21.072;2023-05-07T00:14:00;12.10;;;6.75;;
39996;SDS011;25688;52.338;21.072;2023-05-07T00:16:26;12.55;;;6.72;;
39996;SDS011;25688;52.338;21.072;2023-05-07T00:18:52;16.38;;;6.75;;
39996;SDS011;25688;52.338;21.072;2023-05-07T00:21:18;13.15;;;6.43;;
39996;SDS011;25688;52.338;21.072;2023-05-07T00:23:52;11.70;;;6.63;;
39996;SDS011;25688;52.338;21.072;2023-05-07T00:26:19;12.93;;;6.53;;
39996;SDS011;25688;52.338;21.072;2023-05-07T00:28:45;13.95;;;6.90;;
39996;SDS011;25688;52.338;21.072;2023-05-07T00:31:12;15.10;;;7.95;;
39996;SDS011;25688;52.338;21.072;2023-05-07T00:33:38;12.10;;;6.65;;
39996;SDS011;25688;52.338;21.072;2023-05-07T00:36:04;13.32;;;7.40;;
39996;SDS011;25688;52.338;21.072;2023-05-07T00:38:33;11.93;;;6.68;;
39996;SDS011;25688;52.338;21.072;2023-05-07T00:41:00;11.13;;;6.35;;
39996;SDS011;25688;52.338;21.072;2023-05-07T00:43:27;10.23;;;5.95;;
39996;SDS011;25688;52.338;21.072;2023-05-07T00:45:53;13.27;;;6.70;;
39996;SDS011;25688;52.338;21.072;2023-05-07T00:48:19;13.07;;;6.75;;
39996;SDS011;25688;52.338;21.072;2023-05-07T00:50:46;13.60;;;6.22;;
39996;SDS011;25688;52.338;21.072;2023-05-07T00:53:12;13.07;;;6.60;;
39996;SDS011;25688;52.338;21.072;2023-05-07T00:55:39;10.18;;;6.05;;
39996;SDS011;25688;52.338;21.072;2023-05-07T00:58:05;11.93;;;6.35;;
39996;SDS011;25688;52.338;21.072;2023-05-07T01:00:31;11.50;;;6.28;;
39996;SDS011;25688;52.338;21.072;2023-05-07T01:02:58;11.55;;;6.43;;
39996;SDS011;25688;52.338;21.072;2023-05-07T01:05:24;12.40;;;6.93;;
39996;SDS011;25688;52.338;21.072;2023-05-07T01:07:51;10.65;;;5.93;;
39996;SDS011;25688;52.338;21.072;2023-05-07T01:12:54;11.77;;;6.03;;
39996;SDS011;25688;52.338;21.072;2023-05-07T01:18:50;10.07;;;5.72;;
39996;SDS011;25688;52.338;21.072;2023-05-07T01:21:16;9.32;;;5.05;;
39996;SDS011;25688;52.338;21.072;2023-05-07T01:23:44;11.27;;;5.53;;
39996;SDS011;25688;52.338;21.072;2023-05-07T01:29:03;9.40;;;5.50;;
39996;SDS011;25688;52.338;21.072;2023-05-07T01:31:29;9.27;;;5.70;;
39996;SDS011;25688;52.338;21.072;2023-05-07T01:33:55;10.00;;;5.28;;
39996;SDS011;25688;52.338;21.072;2023-05-07T01:36:22;12.55;;;6.38;;
39996;SDS011;25688;52.338;21.072;2023-05-07T01:38:51;9.48;;;5.32;;
39996;SDS011;25688;52.338;21.072;2023-05-07T01:41:17;10.60;;;4.97;;
39996;SDS011;25688;52.338;21.072;2023-05-07T01:43:44;9.00;;;5.80;;
39996;SDS011;25688;52.338;21.072;2023-05-07T01:46:12;8.95;;;5.10;;
39996;SDS011;25688;52.338;21.072;2023-05-07T01:48:39;10.70;;;5.65;;
39996;SDS011;25688;52.338;21.072;2023-05-07T01:51:05;10.90;;;5.28;;
39996;SDS011;25688;52.338;21.072;2023-05-07T01:53:35;10.00;;;5.28;;
39996;SDS011;25688;52.338;21.072;2023-05-07T01:56:34;9.30;;;5.30;;
39996;SDS011;25688;52.338;21.072;2023-05-07T02:01:34;9.90;;;5.32;;
39996;SDS011;25688;52.338;21.072;2023-05-07T02:04:00;16.25;;;5.47;;
39996;SDS011;25688;52.338;21.072;2023-05-07T02:06:26;9.43;;;4.68;;
39996;SDS011;25688;52.338;21.072;2023-05-07T02:08:51;11.15;;;5.45;;
39996;SDS011;25688;52.338;21.072;2023-05-07T02:11:17;12.23;;;5.88;;
39996;SDS011;25688;52.338;21.072;2023-05-07T02:13:43;9.00;;;4.88;;
39996;SDS011;25688;52.338;21.072;2023-05-07T02:16:09;8.48;;;4.72;;
39996;SDS011;25688;52.338;21.072;2023-05-07T02:18:35;9.57;;;4.93;;
39996;SDS011;25688;52.338;21.072;2023-05-07T02:21:01;15.80;;;6.43;;
39996;SDS011;25688;52.338;21.072;2023-05-07T02:23:27;9.23;;;4.95;;
39996;SDS011;25688;52.338;21.072;2023-05-07T02:25:53;10.93;;;5.35;;
39996;SDS011;25688;52.338;21.072;2023-05-07T02:28:19;10.75;;;5.18;;
39996;SDS011;25688;52.338;21.072;2023-05-07T02:30:44;10.57;;;4.93;;
39996;SDS011;25688;52.338;21.072;2023-05-07T02:33:10;10.55;;;5.25;;
39996;SDS011;25688;52.338;21.072;2023-05-07T02:35:53;8.80;;;5.20;;
39996;SDS011;25688;52.338;21.072;2023-05-07T02:44:00;11.02;;;4.95;;
39996;SDS011;25688;52.338;21.072;2023-05-07T02:46:41;10.52;;;5.20;;
39996;SDS011;25688;52.338;21.072;2023-05-07T02:49:19;10.32;;;5.07;;
39996;SDS011;25688;52.338;21.072;2023-05-07T02:52:08;8.25;;;4.90;;
39996;SDS011;25688;52.338;21.072;2023-05-07T02:54:34;9.50;;;4.90;;
39996;SDS011;25688;52.338;21.072;2023-05-07T02:57:00;8.75;;;4.78;;
39996;SDS011;25688;52.338;21.072;2023-05-07T02:59:30;9.25;;;4.88;;
39996;SDS011;25688;52.338;21.072;2023-05-07T03:01:56;9.25;;;4.28;;
39996;SDS011;25688;52.338;21.072;2023-05-07T03:04:24;10.95;;;5.50;;
39996;SDS011;25688;52.338;21.072;2023-05-07T03:06:49;8.93;;;5.03;;
39996;SDS011;25688;52.338;21.072;2023-05-07T03:09:15;11.90;;;5.10;;
39996;SDS011;25688;52.338;21.072;2023-05-07T03:11:41;10.85;;;5.05;;
39996;SDS011;25688;52.338;21.072;2023-05-07T03:14:07;9.10;;;4.75;;
39996;SDS011;25688;52.338;21.072;2023-05-07T03:16:42;8.80;;;4.50;;
39996;SDS011;25688;52.338;21.072;2023-05-07T03:25:47;10.20;;;4.63;;
39996;SDS011;25688;52.338;21.072;2023-05-07T03:31:26;9.48;;;5.13;;
39996;SDS011;25688;52.338;21.072;2023-05-07T03:41:01;10.07;;;4.55;;
39996;SDS011;25688;52.338;21.072;2023-05-07T03:43:27;10.10;;;4.55;;
39996;SDS011;25688;52.338;21.072;2023-05-07T03:48:57;7.55;;;4.32;;
39996;SDS011;25688;52.338;21.072;2023-05-07T03:53:55;8.25;;;3.80;;
39996;SDS011;25688;52.338;21.072;2023-05-07T03:56:31;9.52;;;5.32;;
39996;SDS011;25688;52.338;21.072;2023-05-07T03:59:00;7.60;;;4.18;;
39996;SDS011;25688;52.338;21.072;2023-05-07T04:01:44;10.52;;;5.13;;
39996;SDS011;25688;52.338;21.072;2023-05-07T04:04:10;9.27;;;4.47;;
39996;SDS011;25688;52.338;21.072;2023-05-07T04:06:40;10.73;;;4.60;;
39996;SDS011;25688;52.338;21.072;2023-05-07T04:09:18;7.68;;;4.05;;
39996;SDS011;25688;52.338;21.072;2023-05-07T04:14:18;10.18;;;4.40;;
39996;SDS011;25688;52.338;21.072;2023-05-07T04:16:44;9.90;;;4.25;;
39996;SDS011;25688;52.338;21.072;2023-05-07T04:19:09;8.98;;;4.10;;
39996;SDS011;25688;52.338;21.072;2023-05-07T04:21:35;8.45;;;4.55;;
39996;SDS011;25688;52.338;21.072;2023-05-07T04:24:02;8.68;;;4.30;;
39996;SDS011;25688;52.338;21.072;2023-05-07T04:29:14;7.55;;;4.30;;
39996;SDS011;25688;52.338;21.072;2023-05-07T04:37:09;7.85;;;4.38;;
39996;SDS011;25688;52.338;21.072;2023-05-07T04:43:08;8.40;;;4.63;;
39996;SDS011;25688;52.338;21.072;2023-05-07T04:49:00;8.57;;;4.75;;
39996;SDS011;25688;52.338;21.072;2023-05-07T04:51:26;7.28;;;4.53;;
39996;SDS011;25688;52.338;21.072;2023-05-07T05:00:12;8.65;;;4.57;;
39996;SDS011;25688;52.338;21.072;2023-05-07T05:02:59;9.45;;;4.13;;
39996;SDS011;25688;52.338;21.072;2023-05-07T05:05:32;9.00;;;4.85;;
39996;SDS011;25688;52.338;21.072;2023-05-07T05:07:59;8.05;;;4.85;;
39996;SDS011;25688;52.338;21.072;2023-05-07T05:11:13;9.30;;;4.22;;
39996;SDS011;25688;52.338;21.072;2023-05-07T05:14:02;9.48;;;4.43;;
39996;SDS011;25688;52.338;21.072;2023-05-07T05:25:29;7.97;;;4.75;;
39996;SDS011;25688;52.338;21.072;2023-05-07T05:31:21;6.40;;;3.70;;
39996;SDS011;25688;52.338;21.072;2023-05-07T05:36:25;10.63;;;4.10;;
39996;SDS011;25688;52.338;21.072;2023-05-07T05:38:51;6.68;;;3.75;;
39996;SDS011;25688;52.338;21.072;2023-05-07T05:41:19;8.07;;;3.67;;
39996;SDS011;25688;52.338;21.072;2023-05-07T05:43:47;7.00;;;3.90;;
39996;SDS011;25688;52.338;21.072;2023-05-07T05:46:13;7.65;;;3.65;;
39996;SDS011;25688;52.338;21.072;2023-05-07T05:48:40;7.22;;;4.00;;
39996;SDS011;25688;52.338;21.072;2023-05-07T05:51:07;5.57;;;3.30;;
39996;SDS011;25688;52.338;21.072;2023-05-07T05:53:33;9.63;;;3.70;;
39996;SDS011;25688;52.338;21.072;2023-05-07T05:56:18;10.43;;;3.80;;
39996;SDS011;25688;52.338;21.072;2023-05-07T05:59:03;9.20;;;3.72;;
39996;SDS011;25688;52.338;21.072;2023-05-07T06:04:55;5.40;;;2.92;;
39996;SDS011;25688;52.338;21.072;2023-05-07T06:07:21;8.73;;;3.60;;
39996;SDS011;25688;52.338;21.072;2023-05-07T06:12:58;7.35;;;3.58;;
39996;SDS011;25688;52.338;21.072;2023-05-07T06:20:37;8.07;;;3.78;;
39996;SDS011;25688;52.338;21.072;2023-05-07T06:23:31;7.63;;;3.88;;
39996;SDS011;25688;52.338;21.072;2023-05-07T06:26:00;6.32;;;3.55;;
39996;SDS011;25688;52.338;21.072;2023-05-07T06:28:36;6.63;;;3.92;;
39996;SDS011;25688;52.338;21.072;2023-05-07T06:34:36;9.18;;;3.65;;
39996;SDS011;25688;52.338;21.072;2023-05-07T06:45:29;7.65;;;3.38;;
39996;SDS011;25688;52.338;21.072;2023-05-07T06:56:30;6.13;;;3.03;;
39996;SDS011;25688;52.338;21.072;2023-05-07T06:59:12;7.20;;;3.60;;
39996;SDS011;25688;52.338;21.072;2023-05-07T07:02:00;6.82;;;3.20;;
39996;SDS011;25688;52.338;21.072;2023-05-07T07:08:21;6.30;;;3.15;;
39996;SDS011;25688;52.338;21.072;2023-05-07T07:30:37;8.23;;;3.15;;
39996;SDS011;25688;52.338;21.072;2023-05-07T07:53:51;5.50;;;3.03;;
39996;SDS011;25688;52.338;21.072;2023-05-07T07:56:18;8.20;;;2.60;;
39996;SDS011;25688;52.338;21.072;2023-05-07T08:11:14;5.85;;;3.20;;
39996;SDS011;25688;52.338;21.072;2023-05-07T08:42:18;5.90;;;2.92;;
39996;SDS011;25688;52.338;21.072;2023-05-07T08:51:32;6.00;;;2.20;;
39996;SDS011;25688;52.338;21.072;2023-05-07T08:53:58;4.65;;;2.70;;
39996;SDS011;25688;52.338;21.072;2023-05-07T08:56:26;6.72;;;2.67;;
39996;SDS011;25688;52.338;21.072;2023-05-07T08:59:04;6.07;;;2.78;;
39996;SDS011;25688;52.338;21.072;2023-05-07T09:01:46;6.20;;;3.13;;
39996;SDS011;25688;52.338;21.072;2023-05-07T09:16:13;5.50;;;2.50;;
39996;SDS011;25688;52.338;21.072;2023-05-07T09:18:44;5.35;;;2.40;;
39996;SDS011;25688;52.338;21.072;2023-05-07T09:24:48;4.78;;;2.15;;
39996;SDS011;25688;52.338;21.072;2023-05-07T09:33:26;5.68;;;2.90;;
39996;SDS011;25688;52.338;21.072;2023-05-07T09:36:01;6.15;;;3.53;;
39996;SDS011;25688;52.338;21.072;2023-05-07T09:38:28;4.93;;;2.47;;
39996;SDS011;25688;52.338;21.072;2023-05-07T09:44:20;7.00;;;2.65;;
39996;SDS011;25688;52.338;21.072;2023-05-07T09:47:11;4.90;;;2.30;;
39996;SDS011;25688;52.338;21.072;2023-05-07T09:52:14;6.13;;;2.53;;
39996;SDS011;25688;52.338;21.072;2023-05-07T09:54:41;10.85;;;2.55;;
39996;SDS011;25688;52.338;21.072;2023-05-07T10:02:58;3.92;;;2.20;;
39996;SDS011;25688;52.338;21.072;2023-05-07T10:12:01;5.80;;;2.15;;
39996;SDS011;25688;52.338;21.072;2023-05-07T10:14:31;5.47;;;2.17;;
39996;SDS011;25688;52.338;21.072;2023-05-07T10:17:22;4.95;;;2.38;;
39996;SDS011;25688;52.338;21.072;2023-05-07T10:19:48;4.03;;;2.20;;
39996;SDS011;25688;52.338;21.072;2023-05-07T10:22:19;5.88;;;2.25;;
39996;SDS011;25688;52.338;21.072;2023-05-07T10:28:33;4.72;;;2.25;;
39996;SDS011;25688;52.338;21.072;2023-05-07T10:34:06;4.20;;;2.50;;
39996;SDS011;25688;52.338;21.072;2023-05-07T10:36:47;5.53;;;2.60;;
39996;SDS011;25688;52.338;21.072;2023-05-07T10:39:15;4.30;;;2.25;;
39996;SDS011;25688;52.338;21.072;2023-05-07T10:48:11;3.33;;;1.92;;
39996;SDS011;25688;52.338;21.072;2023-05-07T10:50:39;5.45;;;2.08;;
39996;SDS011;25688;52.338;21.072;2023-05-07T10:53:43;8.00;;;2.20;;
39996;SDS011;25688;52.338;21.072;2023-05-07T10:56:35;3.97;;;1.58;;
39996;SDS011;25688;52.338;21.072;2023-05-07T11:02:05;4.22;;;1.85;;
39996;SDS011;25688;52.338;21.072;2023-05-07T11:18:27;6.38;;;2.10;;
39996;SDS011;25688;52.338;21.072;2023-05-07T11:36:20;5.35;;;2.38;;
39996;SDS011;25688;52.338;21.072;2023-05-07T11:45:34;4.95;;;2.20;;
39996;SDS011;25688;52.338;21.072;2023-05-07T11:51:13;5.50;;;2.13;;
39996;SDS011;25688;52.338;21.072;2023-05-07T11:53:54;8.70;;;3.03;;
39996;SDS011;25688;52.338;21.072;2023-05-07T11:56:19;4.38;;;2.08;;
39996;SDS011;25688;52.338;21.072;2023-05-07T12:05:03;3.83;;;1.60;;
39996;SDS011;25688;52.338;21.072;2023-05-07T12:10:17;4.30;;;1.88;;
39996;SDS011;25688;52.338;21.072;2023-05-07T12:15:51;3.20;;;1.85;;
39996;SDS011;25688;52.338;21.072;2023-05-07T12:18:20;3.42;;;1.77;;
39996;SDS011;25688;52.338;21.072;2023-05-07T12:20:49;4.60;;;1.67;;
39996;SDS011;25688;52.338;21.072;2023-05-07T12:29:27;4.43;;;2.10;;
39996;SDS011;25688;52.338;21.072;2023-05-07T12:42:08;4.45;;;2.00;;
39996;SDS011;25688;52.338;21.072;2023-05-07T12:56:31;4.57;;;2.00;;
39996;SDS011;25688;52.338;21.072;2023-05-07T12:59:30;3.60;;;2.00;;
39996;SDS011;25688;52.338;21.072;2023-05-07T13:02:03;3.75;;;1.50;;
39996;SDS011;25688;52.338;21.072;2023-05-07T13:04:30;3.42;;;1.63;;
39996;SDS011;25688;52.338;21.072;2023-05-07T13:09:35;7.00;;;2.10;;
39996;SDS011;25688;52.338;21.072;2023-05-07T13:12:33;3.58;;;1.75;;
39996;SDS011;25688;52.338;21.072;2023-05-07T13:22:23;4.35;;;2.33;;
39996;SDS011;25688;52.338;21.072;2023-05-07T13:24:52;6.63;;;1.85;;
39996;SDS011;25688;52.338;21.072;2023-05-07T13:27:20;11.27;;;3.22;;
39996;SDS011;25688;52.338;21.072;2023-05-07T13:33:12;5.68;;;2.08;;
39996;SDS011;25688;52.338;21.072;2023-05-07T13:35:41;3.92;;;1.70;;
39996;SDS011;25688;52.338;21.072;2023-05-07T13:38:06;3.58;;;1.40;;
39996;SDS011;25688;52.338;21.072;2023-05-07T13:40:58;4.63;;;1.90;;
39996;SDS011;25688;52.338;21.072;2023-05-07T13:43:36;8.38;;;2.35;;
39996;SDS011;25688;52.338;21.072;2023-05-07T13:46:02;4.63;;;2.28;;
39996;SDS011;25688;52.338;21.072;2023-05-07T13:48:27;4.13;;;1.88;;
39996;SDS011;25688;52.338;21.072;2023-05-07T13:50:53;4.78;;;1.60;;
39996;SDS011;25688;52.338;21.072;2023-05-07T13:53:19;3.60;;;1.80;;
39996;SDS011;25688;52.338;21.072;2023-05-07T13:55:57;3.22;;;1.60;;
39996;SDS011;25688;52.338;21.072;2023-05-07T13:58:29;3.92;;;1.50;;
39996;SDS011;25688;52.338;21.072;2023-05-07T14:01:19;5.68;;;1.60;;
39996;SDS011;25688;52.338;21.072;2023-05-07T14:03:48;5.53;;;2.47;;
39996;SDS011;25688;52.338;21.072;2023-05-07T14:06:14;3.72;;;1.58;;
39996;SDS011;25688;52.338;21.072;2023-05-07T14:09:18;4.30;;;1.48;;
39996;SDS011;25688;52.338;21.072;2023-05-07T14:11:44;5.53;;;1.75;;
39996;SDS011;25688;52.338;21.072;2023-05-07T14:14:12;3.78;;;2.00;;
39996;SDS011;25688;52.338;21.072;2023-05-07T14:17:26;5.13;;;1.65;;
39996;SDS011;25688;52.338;21.072;2023-05-07T14:19:55;3.65;;;1.70;;
39996;SDS011;25688;52.338;21.072;2023-05-07T14:22:30;4.72;;;1.83;;
39996;SDS011;25688;52.338;21.072;2023-05-07T14:24:55;3.15;;;1.67;;
39996;SDS011;25688;52.338;21.072;2023-05-07T14:30:49;3.90;;;1.70;;
39996;SDS011;25688;52.338;21.072;2023-05-07T14:36:06;4.88;;;2.45;;
39996;SDS011;25688;52.338;21.072;2023-05-07T14:38:35;5.38;;;2.33;;
39996;SDS011;25688;52.338;21.072;2023-05-07T14:41:04;4.40;;;2.10;;
39996;SDS011;25688;52.338;21.072;2023-05-07T14:43:30;3.67;;;1.83;;
39996;SDS011;25688;52.338;21.072;2023-05-07T14:46:08;6.00;;;2.22;;
39996;SDS011;25688;52.338;21.072;2023-05-07T14:48:34;3.88;;;1.70;;
39996;SDS011;25688;52.338;21.072;2023-05-07T14:51:04;6.15;;;2.42;;
39996;SDS011;25688;52.338;21.072;2023-05-07T14:53:32;4.03;;;1.65;;
39996;SDS011;25688;52.338;21.072;2023-05-07T14:56:07;6.13;;;2.00;;
39996;SDS011;25688;52.338;21.072;2023-05-07T15:04:27;7.22;;;2.08;;
39996;SDS011;25688;52.338;21.072;2023-05-07T15:07:04;4.97;;;2.05;;
39996;SDS011;25688;52.338;21.072;2023-05-07T15:09:30;5.65;;;2.20;;
39996;SDS011;25688;52.338;21.072;2023-05-07T15:11:59;4.90;;;2.03;;
39996;SDS011;25688;52.338;21.072;2023-05-07T15:15:39;4.00;;;2.15;;
39996;SDS011;25688;52.338;21.072;2023-05-07T15:21:21;4.00;;;2.22;;
39996;SDS011;25688;52.338;21.072;2023-05-07T15:23:47;4.03;;;1.95;;
39996;SDS011;25688;52.338;21.072;2023-05-07T15:26:12;4.70;;;2.00;;
39996;SDS011;25688;52.338;21.072;2023-05-07T15:32:24;6.75;;;1.85;;
39996;SDS011;25688;52.338;21.072;2023-05-07T15:34:50;4.38;;;2.08;;
39996;SDS011;25688;52.338;21.072;2023-05-07T15:37:19;5.28;;;2.08;;
39996;SDS011;25688;52.338;21.072;2023-05-07T15:39:45;6.55;;;2.33;;
39996;SDS011;25688;52.338;21.072;2023-05-07T15:42:17;5.47;;;2.20;;
39996;SDS011;25688;52.338;21.072;2023-05-07T15:47:52;6.15;;;1.90;;
39996;SDS011;25688;52.338;21.072;2023-05-07T15:50:18;4.03;;;2.03;;
39996;SDS011;25688;52.338;21.072;2023-05-07T15:55:09;4.75;;;2.08;;
39996;SDS011;25688;52.338;21.072;2023-05-07T16:00:58;5.07;;;2.25;;
39996;SDS011;25688;52.338;21.072;2023-05-07T16:06:54;5.45;;;2.00;;
39996;SDS011;25688;52.338;21.072;2023-05-07T16:09:20;4.05;;;1.55;;
39996;SDS011;25688;52.338;21.072;2023-05-07T16:12:00;8.13;;;2.53;;
39996;SDS011;25688;52.338;21.072;2023-05-07T16:14:26;3.58;;;1.80;;
39996;SDS011;25688;52.338;21.072;2023-05-07T16:16:57;3.72;;;1.80;;
39996;SDS011;25688;52.338;21.072;2023-05-07T16:19:27;4.70;;;2.00;;
39996;SDS011;25688;52.338;21.072;2023-05-07T16:25:10;4.32;;;2.05;;
39996;SDS011;25688;52.338;21.072;2023-05-07T16:27:38;5.80;;;2.30;;
39996;SDS011;25688;52.338;21.072;2023-05-07T16:30:05;5.57;;;2.10;;
39996;SDS011;25688;52.338;21.072;2023-05-07T16:32:52;5.10;;;2.22;;
39996;SDS011;25688;52.338;21.072;2023-05-07T16:46:46;5.88;;;2.10;;
39996;SDS011;25688;52.338;21.072;2023-05-07T16:52:01;4.80;;;2.13;;
39996;SDS011;25688;52.338;21.072;2023-05-07T16:54:30;4.32;;;1.75;;
39996;SDS011;25688;52.338;21.072;2023-05-07T16:59:57;5.18;;;2.10;;
39996;SDS011;25688;52.338;21.072;2023-05-07T17:02:24;5.43;;;2.05;;
39996;SDS011;25688;52.338;21.072;2023-05-07T17:04:50;6.07;;;2.38;;
39996;SDS011;25688;52.338;21.072;2023-05-07T17:09:57;5.05;;;2.22;;
39996;SDS011;25688;52.338;21.072;2023-05-07T17:21:41;4.63;;;2.10;;
39996;SDS011;25688;52.338;21.072;2023-05-07T17:24:07;7.22;;;2.72;;
39996;SDS011;25688;52.338;21.072;2023-05-07T17:29:04;5.63;;;3.13;;
39996;SDS011;25688;52.338;21.072;2023-05-07T17:37:49;6.05;;;2.22;;
39996;SDS011;25688;52.338;21.072;2023-05-07T17:40:19;5.70;;;2.75;;
39996;SDS011;25688;52.338;21.072;2023-05-07T17:45:42;7.63;;;3.17;;
39996;SDS011;25688;52.338;21.072;2023-05-07T17:48:08;4.35;;;2.40;;
39996;SDS011;25688;52.338;21.072;2023-05-07T17:57:02;5.82;;;3.00;;
39996;SDS011;25688;52.338;21.072;2023-05-07T17:59:28;6.10;;;2.88;;
39996;SDS011;25688;52.338;21.072;2023-05-07T18:02:03;6.78;;;3.30;;
39996;SDS011;25688;52.338;21.072;2023-05-07T18:04:32;10.32;;;3.70;;
39996;SDS011;25688;52.338;21.072;2023-05-07T18:07:01;7.63;;;3.58;;
39996;SDS011;25688;52.338;21.072;2023-05-07T18:28:12;10.35;;;6.07;;
39996;SDS011;25688;52.338;21.072;2023-05-07T18:33:06;11.23;;;5.82;;
39996;SDS011;25688;52.338;21.072;2023-05-07T18:35:32;13.43;;;5.75;;
39996;SDS011;25688;52.338;21.072;2023-05-07T18:44:17;9.60;;;5.20;;
39996;SDS011;25688;52.338;21.072;2023-05-07T18:46:43;11.43;;;5.22;;
39996;SDS011;25688;52.338;21.072;2023-05-07T18:49:11;8.98;;;5.13;;
39996;SDS011;25688;52.338;21.072;2023-05-07T18:51:37;10.90;;;5.63;;
39996;SDS011;25688;52.338;21.072;2023-05-07T18:54:03;13.02;;;5.65;;
39996;SDS011;25688;52.338;21.072;2023-05-07T18:56:29;17.55;;;5.47;;
39996;SDS011;25688;52.338;21.072;2023-05-07T18:58:58;9.55;;;5.90;;
39996;SDS011;25688;52.338;21.072;2023-05-07T19:01:23;10.15;;;5.10;;
39996;SDS011;25688;52.338;21.072;2023-05-07T19:03:49;12.07;;;6.00;;
39996;SDS011;25688;52.338;21.072;2023-05-07T19:06:15;13.13;;;5.65;;
39996;SDS011;25688;52.338;21.072;2023-05-07T19:08:41;11.88;;;5.22;;
39996;SDS011;25688;52.338;21.072;2023-05-07T19:16:25;12.05;;;5.32;;
39996;SDS011;25688;52.338;21.072;2023-05-07T19:18:51;13.18;;;5.90;;
39996;SDS011;25688;52.338;21.072;2023-05-07T19:24:45;9.85;;;5.90;;
39996;SDS011;25688;52.338;21.072;2023-05-07T19:27:20;13.63;;;6.25;;
39996;SDS011;25688;52.338;21.072;2023-05-07T19:29:48;12.45;;;6.18;;
39996;SDS011;25688;52.338;21.072;2023-05-07T19:32:14;14.38;;;7.18;;
39996;SDS011;25688;52.338;21.072;2023-05-07T19:34:40;13.20;;;6.78;;
39996;SDS011;25688;52.338;21.072;2023-05-07T19:37:06;14.80;;;7.88;;
39996;SDS011;25688;52.338;21.072;2023-05-07T19:39:31;17.08;;;8.90;;
39996;SDS011;25688;52.338;21.072;2023-05-07T19:42:00;16.55;;;8.15;;
39996;SDS011;25688;52.338;21.072;2023-05-07T19:44:28;16.40;;;8.57;;
39996;SDS011;25688;52.338;21.072;2023-05-07T19:46:54;15.13;;;8.88;;
39996;SDS011;25688;52.338;21.072;2023-05-07T19:52:35;13.82;;;7.88;;
39996;SDS011;25688;52.338;21.072;2023-05-07T19:55:01;15.68;;;7.68;;
39996;SDS011;25688;52.338;21.072;2023-05-07T20:00:42;20.63;;;9.10;;
39996;SDS011;25688;52.338;21.072;2023-05-07T20:03:20;15.20;;;8.20;;
39996;SDS011;25688;52.338;21.072;2023-05-07T20:13:48;14.32;;;7.88;;
39996;SDS011;25688;52.338;21.072;2023-05-07T20:21:21;13.18;;;7.60;;
39996;SDS011;25688;52.338;21.072;2023-05-07T20:27:09;15.90;;;9.05;;
39996;SDS011;25688;52.338;21.072;2023-05-07T20:29:34;18.10;;;9.68;;
39996;SDS011;25688;52.338;21.072;2023-05-07T20:32:13;15.15;;;7.38;;
39996;SDS011;25688;52.338;21.072;2023-05-07T20:34:41;12.75;;;7.43;;
39996;SDS011;25688;52.338;21.072;2023-05-07T20:37:21;13.15;;;7.03;;
39996;SDS011;25688;52.338;21.072;2023-05-07T20:43:19;12.50;;;8.57;;
39996;SDS011;25688;52.338;21.072;2023-05-07T20:46:38;12.27;;;7.47;;
39996;SDS011;25688;52.338;21.072;2023-05-07T20:49:17;14.57;;;8.40;;
39996;SDS011;25688;52.338;21.072;2023-05-07T21:00:33;14.15;;;9.10;;
39996;SDS011;25688;52.338;21.072;2023-05-07T21:06:20;18.83;;;10.57;;
39996;SDS011;25688;52.338;21.072;2023-05-07T21:11:13;21.80;;;11.07;;
39996;SDS011;25688;52.338;21.072;2023-05-07T21:13:38;20.67;;;11.13;;
39996;SDS011;25688;52.338;21.072;2023-05-07T21:21:18;20.13;;;10.85;;
39996;SDS011;25688;52.338;21.072;2023-05-07T21:24:20;17.45;;;10.60;;
39996;SDS011;25688;52.338;21.072;2023-05-07T21:26:49;18.58;;;9.88;;
39996;SDS011;25688;52.338;21.072;2023-05-07T21:29:36;17.27;;;10.10;;
39996;SDS011;25688;52.338;21.072;2023-05-07T21:32:05;17.25;;;10.00;;
39996;SDS011;25688;52.338;21.072;2023-05-07T21:34:36;14.95;;;9.85;;
39996;SDS011;25688;52.338;21.072;2023-05-07T21:37:10;18.10;;;10.70;;
39996;SDS011;25688;52.338;21.072;2023-05-07T21:39:44;16.25;;;9.88;;
39996;SDS011;25688;52.338;21.072;2023-05-07T21:42:13;18.10;;;9.98;;
39996;SDS011;25688;52.338;21.072;2023-05-07T21:45:28;18.70;;;9.75;;
39996;SDS011;25688;52.338;21.072;2023-05-07T21:57:34;13.65;;;8.15;;
39996;SDS011;25688;52.338;21.072;2023-05-07T22:34:03;17.30;;;12.15;;
39996;SDS011;25688;52.338;21.072;2023-05-07T22:36:38;17.65;;;9.40;;
39996;SDS011;25688;52.338;21.072;2023-05-07T22:39:06;21.77;;;11.18;;
39996;SDS011;25688;52.338;21.072;2023-05-07T22:41:34;23.80;;;11.63;;
39996;SDS011;25688;52.338;21.072;2023-05-07T22:44:05;21.77;;;12.73;;
39996;SDS011;25688;52.338;21.072;2023-05-07T22:46:43;21.83;;;12.88;;
39996;SDS011;25688;52.338;21.072;2023-05-07T22:49:13;15.73;;;9.52;;
39996;SDS011;25688;52.338;21.072;2023-05-07T22:51:45;17.42;;;10.40;;
39996;SDS011;25688;52.338;21.072;2023-05-07T22:54:11;22.98;;;11.73;;
39996;SDS011;25688;52.338;21.072;2023-05-07T22:59:12;16.88;;;9.57;;
39996;SDS011;25688;52.338;21.072;2023-05-07T23:01:39;20.27;;;10.45;;
39996;SDS011;25688;52.338;21.072;2023-05-07T23:06:30;15.20;;;9.05;;
39996;SDS011;25688;52.338;21.072;2023-05-07T23:15:43;111.18;;;18.02;;
39996;SDS011;25688;52.338;21.072;2023-05-07T23:18:09;39.28;;;14.45;;
39996;SDS011;25688;52.338;21.072;2023-05-07T23:20:35;81.20;;;18.73;;
39996;SDS011;25688;52.338;21.072;2023-05-07T23:34:49;40.80;;;16.40;;
39996;SDS011;25688;52.338;21.072;2023-05-07T23:39:54;28.73;;;15.43;;
39996;SDS011;25688;52.338;21.072;2023-05-07T23:51:44;46.20;;;15.10;;
39996;SDS011;25688;52.338;21.072;2023-05-07T23:54:10;27.75;;;14.18;;
39996;SDS011;25688;52.338;21.072;2023-05-07T23:56:36;121.35;;;19.98;;
39996;SDS011;25688;52.338;21.072;2023-05-07T23:59:01;128.35;;;23.40;;
